createdAt,value
2023-05-25T00:01:03.048Z,98412.16
2023-05-25T00:03:04.859Z,98411.31
2023-05-25T00:05:06.273Z,98413.03
2023-05-25T00:07:07.761Z,98410.50
2023-05-25T00:09:09.511Z,98410.53
2023-05-25T00:11:11.155Z,98408.81
2023-05-25T00:13:12.535Z,98414.78
2023-05-25T00:15:13.860Z,98408.00
2023-05-25T00:17:15.549Z,98406.31
2023-05-25T00:19:18.606Z,98402.06
2023-05-25T00:21:20.645Z,98401.25
2023-05-25T00:23:22.147Z,98403.78
2023-05-25T00:25:23.539Z,98404.66
2023-05-25T00:27:25.392Z,98404.66
2023-05-25T00:29:26.774Z,98407.16
2023-05-25T00:31:28.298Z,98411.44
2023-05-25T00:33:29.799Z,98415.63
2023-05-25T00:35:31.131Z,98420.66
2023-05-25T00:37:32.458Z,98418.97
2023-05-25T00:39:33.811Z,98416.41
2023-05-25T00:41:35.385Z,98419.81
2023-05-25T00:43:36.712Z,98430.88
2023-05-25T00:45:38.032Z,98424.06
2023-05-25T00:47:39.664Z,98419.81
2023-05-25T00:49:41.342Z,98422.41
2023-05-25T00:51:42.890Z,98424.94
2023-05-25T00:53:44.223Z,98426.66
2023-05-25T00:55:45.777Z,98432.59
2023-05-25T00:57:48.125Z,98431.72
2023-05-25T00:59:49.773Z,98423.19
2023-05-25T01:01:53.980Z,98425.75
2023-05-25T01:03:55.462Z,98427.41
2023-05-25T01:05:57.515Z,98418.94
2023-05-25T01:07:58.837Z,98424.91
2023-05-25T01:10:00.326Z,98421.53
2023-05-25T01:12:02.323Z,98421.53
2023-05-25T01:14:03.722Z,98424.94
2023-05-25T01:16:05.139Z,98424.94
2023-05-25T01:18:06.485Z,98418.13
2023-05-25T01:20:11.118Z,98418.13
2023-05-25T01:22:13.458Z,98418.09
2023-05-25T01:24:17.633Z,98417.97
2023-05-25T01:26:19.007Z,98415.50
2023-05-25T01:28:20.544Z,98410.47
2023-05-25T01:30:22.169Z,98415.66
2023-05-25T01:32:23.572Z,98421.66
2023-05-25T01:34:24.911Z,98419.16
2023-05-25T01:36:26.911Z,98418.28
2023-05-25T01:38:28.265Z,98423.38
2023-05-25T01:40:29.655Z,98425.06
2023-05-25T01:42:31.006Z,98413.19
2023-05-25T01:44:32.446Z,98421.69
2023-05-25T01:46:35.691Z,98423.41
2023-05-25T01:48:37.101Z,98414.06
2023-05-25T01:50:38.424Z,98415.69
2023-05-25T01:52:39.789Z,98417.34
2023-05-25T01:54:41.155Z,98416.44
2023-05-25T01:56:42.810Z,98417.28
2023-05-25T01:58:44.162Z,98415.63
2023-05-25T02:00:45.529Z,98415.63
2023-05-25T02:02:46.964Z,98418.19
2023-05-25T02:04:48.439Z,98418.22
2023-05-25T02:06:50.033Z,98419.06
2023-05-25T02:08:51.370Z,98419.91
2023-05-25T02:10:52.759Z,98419.88
2023-05-25T02:12:54.324Z,98428.41
2023-05-25T02:14:55.771Z,98426.69
2023-05-25T02:16:57.971Z,98419.03
2023-05-25T02:18:59.317Z,98417.34
2023-05-25T02:21:00.644Z,98418.19
2023-05-25T02:23:02.250Z,98417.34
2023-05-25T02:25:03.575Z,98419.88
2023-05-25T02:27:04.948Z,98408.00
2023-05-25T02:29:06.655Z,98419.88
2023-05-25T02:31:08.048Z,98421.63
2023-05-25T02:33:09.430Z,98423.31
2023-05-25T02:35:13.717Z,98422.47
2023-05-25T02:37:15.083Z,98423.34
2023-05-25T02:39:16.485Z,98425.00
2023-05-25T02:41:17.853Z,98431.81
2023-05-25T02:43:19.183Z,98430.94
2023-05-25T02:45:20.518Z,98432.59
2023-05-25T02:47:22.020Z,98432.59
2023-05-25T02:49:23.386Z,98428.38
2023-05-25T02:51:24.722Z,98436.91
2023-05-25T02:53:26.086Z,98427.59
2023-05-25T02:55:27.522Z,98439.47
2023-05-25T02:57:29.151Z,98425.06
2023-05-25T02:59:30.726Z,98436.13
2023-05-25T03:01:32.150Z,98443.75
2023-05-25T03:03:33.585Z,98433.53
2023-05-25T03:05:35.369Z,98443.69
2023-05-25T03:07:36.789Z,98453.91
2023-05-25T03:09:38.116Z,98444.56
2023-05-25T03:11:39.447Z,98449.69
2023-05-25T03:13:40.820Z,98448.84
2023-05-25T03:15:42.326Z,98450.59
2023-05-25T03:17:43.824Z,98453.94
2023-05-25T03:19:45.151Z,98452.22
2023-05-25T03:21:46.599Z,98450.50
2023-05-25T03:23:47.939Z,98447.09
2023-05-25T03:25:49.261Z,98455.59
2023-05-25T03:27:50.617Z,98454.75
2023-05-25T03:29:51.954Z,98464.13
2023-05-25T03:31:53.288Z,98469.22
2023-05-25T03:33:54.724Z,98470.91
2023-05-25T03:35:56.114Z,98465.81
2023-05-25T03:37:57.462Z,98467.53
2023-05-25T03:39:58.814Z,98469.19
2023-05-25T03:42:00.216Z,98470.84
2023-05-25T03:44:02.288Z,98474.19
2023-05-25T03:46:03.692Z,98474.19
2023-05-25T03:48:05.142Z,98471.66
2023-05-25T03:50:07.133Z,98481.84
2023-05-25T03:52:08.467Z,98480.16
2023-05-25T03:54:09.853Z,98481.84
2023-05-25T03:56:11.230Z,98481.00
2023-05-25T03:58:13.860Z,98482.72
2023-05-25T04:00:15.221Z,98475.06
2023-05-25T04:02:16.965Z,98490.28
2023-05-25T04:04:18.342Z,98488.56
2023-05-25T04:06:19.767Z,98491.13
2023-05-25T04:08:22.497Z,98497.03
2023-05-25T04:10:23.900Z,98502.13
2023-05-25T04:12:25.420Z,98499.53
2023-05-25T04:14:26.891Z,98500.38
2023-05-25T04:16:28.345Z,98492.75
2023-05-25T04:18:29.727Z,98492.75
2023-05-25T04:20:31.232Z,98502.94
2023-05-25T04:22:33.455Z,98504.59
2023-05-25T04:24:34.915Z,98506.31
2023-05-25T04:26:36.366Z,98502.94
2023-05-25T04:28:37.704Z,98499.56
2023-05-25T04:30:39.755Z,98506.34
2023-05-25T04:32:42.216Z,98508.91
2023-05-25T04:34:46.812Z,98504.72
2023-05-25T04:36:48.734Z,98506.41
2023-05-25T04:38:52.214Z,98505.53
2023-05-25T04:40:54.083Z,98505.56
2023-05-25T04:42:55.948Z,98503.88
2023-05-25T04:44:57.281Z,98508.09
2023-05-25T04:46:59.686Z,98508.88
2023-05-25T04:49:01.015Z,98509.75
2023-05-25T04:51:04.584Z,98513.94
2023-05-25T04:53:05.947Z,98511.44
2023-05-25T04:55:07.271Z,98512.38
2023-05-25T04:57:08.689Z,98515.84
2023-05-25T04:59:10.073Z,98511.63
2023-05-25T05:01:11.436Z,98511.63
2023-05-25T05:03:13.595Z,98509.94
2023-05-25T05:05:15.036Z,98519.28
2023-05-25T05:07:16.370Z,98507.34
2023-05-25T05:09:17.776Z,98509.06
2023-05-25T05:11:19.095Z,98511.63
2023-05-25T05:13:20.551Z,98510.75
2023-05-25T05:15:21.950Z,98505.66
2023-05-25T05:17:24.066Z,98504.75
2023-05-25T05:19:25.404Z,98511.47
2023-05-25T05:21:26.775Z,98509.84
2023-05-25T05:23:28.178Z,98515.78
2023-05-25T05:25:29.573Z,98514.09
2023-05-25T05:27:33.757Z,98512.41
2023-05-25T05:29:35.127Z,98508.13
2023-05-25T05:31:36.832Z,98515.78
2023-05-25T05:33:38.209Z,98515.78
2023-05-25T05:35:39.663Z,98521.69
2023-05-25T05:37:41.086Z,98517.47
2023-05-25T05:39:42.453Z,98515.72
2023-05-25T05:41:45.429Z,98509.75
2023-05-25T05:43:46.896Z,98513.16
2023-05-25T05:45:48.265Z,98512.25
2023-05-25T05:47:49.635Z,98514.81
2023-05-25T05:49:51.013Z,98507.97
2023-05-25T05:51:52.371Z,98504.56
2023-05-25T05:53:53.780Z,98500.31
2023-05-25T05:55:59.073Z,98506.28
2023-05-25T05:58:00.591Z,98507.16
2023-05-25T06:00:01.958Z,98505.44
2023-05-25T06:02:03.412Z,98506.28
2023-05-25T06:04:04.793Z,98504.59
2023-05-25T06:06:06.240Z,98502.88
2023-05-25T06:08:10.065Z,98499.50
2023-05-25T06:10:11.969Z,98498.66
2023-05-25T06:12:13.287Z,98500.31
2023-05-25T06:14:14.640Z,98505.44
2023-05-25T06:16:16.295Z,98496.06
2023-05-25T06:18:17.658Z,98498.63
2023-05-25T06:20:19.659Z,98495.22
2023-05-25T06:22:22.040Z,98492.69
2023-05-25T06:24:23.360Z,98500.31
2023-05-25T06:26:25.000Z,98502.03
2023-05-25T06:28:26.365Z,98498.63
2023-05-25T06:30:27.713Z,98499.50
2023-05-25T06:32:29.125Z,98503.72
2023-05-25T06:34:31.057Z,98499.47
2023-05-25T06:36:32.647Z,98496.06
2023-05-25T06:38:34.131Z,98495.97
2023-05-25T06:40:35.453Z,98490.00
2023-05-25T06:42:37.865Z,98492.53
2023-05-25T06:44:39.211Z,98495.84
2023-05-25T06:46:41.431Z,98489.16
2023-05-25T06:48:42.904Z,98496.88
2023-05-25T06:50:46.092Z,98496.88
2023-05-25T06:52:47.431Z,98502.81
2023-05-25T06:54:48.800Z,98499.41
2023-05-25T06:56:50.203Z,98498.59
2023-05-25T06:58:51.563Z,98498.53
2023-05-25T07:00:52.903Z,98520.59
2023-05-25T07:02:54.329Z,98509.59
2023-05-25T07:04:55.733Z,98507.03
2023-05-25T07:06:57.109Z,98504.50
2023-05-25T07:08:58.565Z,98492.56
2023-05-25T07:10:59.970Z,98501.06
2023-05-25T07:13:02.430Z,98501.06
2023-05-25T07:15:03.763Z,98501.03
2023-05-25T07:17:05.108Z,98503.50
2023-05-25T07:19:06.444Z,98496.75
2023-05-25T07:21:09.984Z,98495.84
2023-05-25T07:23:11.445Z,98500.97
2023-05-25T07:25:12.789Z,98501.81
2023-05-25T07:27:14.278Z,98508.56
2023-05-25T07:29:15.707Z,98505.16
2023-05-25T07:31:17.704Z,98507.66
2023-05-25T07:33:19.090Z,98507.63
2023-05-25T07:35:20.772Z,98505.06
2023-05-25T07:37:22.102Z,98505.03
2023-05-25T07:39:23.450Z,98510.06
2023-05-25T07:41:24.792Z,98504.94
2023-05-25T07:43:26.148Z,98510.88
2023-05-25T07:45:27.541Z,98513.41
2023-05-25T07:47:28.967Z,98519.19
2023-05-25T07:49:30.339Z,98526.75
2023-05-25T07:51:32.982Z,98522.47
2023-05-25T07:53:34.389Z,98526.88
2023-05-25T07:55:36.107Z,98522.72
2023-05-25T07:57:37.491Z,98521.69
2023-05-25T07:59:38.843Z,98517.66
2023-05-25T08:01:40.194Z,98512.69
2023-05-25T08:05:49.216Z,98529.00
2023-05-25T08:07:50.579Z,98532.44
2023-05-25T08:09:51.961Z,98532.44
2023-05-25T08:12:00.327Z,98529.03
2023-05-25T08:14:09.432Z,98529.06
2023-05-25T08:16:10.825Z,98528.19
2023-05-25T08:18:12.216Z,98530.72
2023-05-25T08:20:13.740Z,98528.19
2023-05-25T08:22:15.175Z,98534.16
2023-05-25T08:24:16.501Z,98534.13
2023-05-25T08:26:34.129Z,98531.59
2023-05-25T08:28:39.166Z,98533.31
2023-05-25T08:30:41.290Z,98535.97
2023-05-25T08:32:42.786Z,98535.13
2023-05-25T08:34:44.133Z,98530.03
2023-05-25T08:36:45.793Z,98526.78
2023-05-25T08:38:47.124Z,98527.63
2023-05-25T08:40:48.455Z,98530.13
2023-05-25T08:42:49.774Z,98537.81
2023-05-25T08:44:51.110Z,98536.94
2023-05-25T08:46:52.561Z,98541.22
2023-05-25T08:48:54.112Z,98537.78
2023-05-25T08:50:55.475Z,98536.97
2023-05-25T08:52:56.814Z,98531.84
2023-05-25T08:54:58.138Z,98533.63
2023-05-25T08:56:59.889Z,98541.31
2023-05-25T08:59:03.320Z,98543.84
2023-05-25T09:01:07.540Z,98544.66
2023-05-25T09:03:09.022Z,98534.44
2023-05-25T09:05:10.535Z,98537.00
2023-05-25T09:07:11.964Z,98540.38
2023-05-25T09:09:13.439Z,98536.16
2023-05-25T09:11:16.941Z,98531.91
2023-05-25T09:13:22.930Z,98537.03
2023-05-25T09:15:24.607Z,98354.56
2023-05-25T09:17:26.813Z,98537.03
2023-05-25T09:19:28.165Z,98547.22
2023-05-25T09:21:29.491Z,98548.91
2023-05-25T09:23:30.876Z,98551.47
2023-05-25T09:25:32.256Z,98558.28
2023-05-25T09:27:33.662Z,98549.69
2023-05-25T09:29:34.988Z,98553.78
2023-05-25T09:31:36.382Z,98553.50
2023-05-25T09:33:37.736Z,98551.72
2023-05-25T09:35:39.300Z,98548.38
2023-05-25T09:37:40.909Z,98553.53
2023-05-25T09:39:42.625Z,98546.81
2023-05-25T09:41:44.052Z,98373.84
2023-05-25T09:43:54.655Z,98556.41
2023-05-25T09:46:03.244Z,98563.38
2023-05-25T09:48:04.753Z,98562.50
2023-05-25T09:50:06.349Z,98563.88
2023-05-25T09:52:07.694Z,98556.16
2023-05-25T09:54:09.046Z,98551.84
2023-05-25T09:56:10.388Z,98561.28
2023-05-25T09:58:13.335Z,98563.84
2023-05-25T10:00:14.982Z,98562.19
2023-05-25T10:02:16.387Z,98556.84
2023-05-25T10:04:17.758Z,98562.66
2023-05-25T10:06:19.117Z,98556.41
2023-05-25T10:08:21.623Z,98565.19
2023-05-25T10:10:23.231Z,98557.59
2023-05-25T10:12:25.957Z,98562.72
2023-05-25T10:14:29.450Z,98574.44
2023-05-25T10:16:31.161Z,98571.13
2023-05-25T10:18:32.520Z,98569.22
2023-05-25T10:20:35.169Z,98575.91
2023-05-25T10:22:36.751Z,98562.09
2023-05-25T10:24:38.082Z,98564.38
2023-05-25T10:26:39.456Z,98559.28
2023-05-25T10:28:41.069Z,98565.28
2023-05-25T10:30:42.423Z,98560.06
2023-05-25T10:32:43.861Z,98558.91
2023-05-25T10:34:45.807Z,98370.41
2023-05-25T10:36:48.825Z,98562.41
2023-05-25T10:38:50.176Z,98557.50
2023-05-25T10:40:51.595Z,98561.84
2023-05-25T10:42:52.936Z,98373.78
2023-05-25T10:44:54.308Z,98565.28
2023-05-25T10:46:55.757Z,98564.97
2023-05-25T10:49:02.515Z,98565.47
2023-05-25T10:51:04.223Z,98565.78
2023-05-25T10:53:05.551Z,98562.88
2023-05-25T10:55:07.186Z,98570.59
2023-05-25T10:57:08.549Z,98565.41
2023-05-25T10:59:09.883Z,98561.09
2023-05-25T11:01:11.372Z,98556.78
2023-05-25T11:03:12.856Z,98556.00
2023-05-25T11:05:14.197Z,98563.63
2023-05-25T11:07:16.654Z,98562.88
2023-05-25T11:09:18.059Z,98560.41
2023-05-25T11:11:19.409Z,98559.59
2023-05-25T11:13:20.766Z,98557.88
2023-05-25T11:15:22.130Z,98568.16
2023-05-25T11:17:24.587Z,98564.72
2023-05-25T11:19:26.232Z,98557.84
2023-05-25T11:21:27.571Z,98557.81
2023-05-25T11:23:29.457Z,98561.22
2023-05-25T11:25:30.792Z,98555.28
2023-05-25T11:27:32.241Z,98551.06
2023-05-25T11:29:39.060Z,98551.13
2023-05-25T11:31:43.318Z,98559.63
2023-05-25T11:33:45.364Z,98556.28
2023-05-25T11:35:48.936Z,98560.56
2023-05-25T11:37:50.908Z,98550.41
2023-05-25T11:39:52.235Z,98550.38
2023-05-25T11:41:54.670Z,98554.56
2023-05-25T11:43:57.046Z,98549.47
2023-05-25T11:45:58.583Z,98557.94
2023-05-25T11:47:59.992Z,98547.75
2023-05-25T11:50:02.317Z,98541.78
2023-05-25T11:52:03.718Z,98547.75
2023-05-25T11:54:05.083Z,98546.06
2023-05-25T11:56:08.350Z,98544.38
2023-05-25T11:58:09.992Z,98546.06
2023-05-25T12:00:11.544Z,98535.00
2023-05-25T12:02:12.959Z,98533.28
2023-05-25T12:04:16.750Z,98536.69
2023-05-25T12:06:18.194Z,98534.16
2023-05-25T12:08:19.519Z,98535.84
2023-05-25T12:10:20.840Z,98534.16
2023-05-25T12:12:22.214Z,98527.34
2023-05-25T12:14:24.018Z,98529.91
2023-05-25T12:16:25.415Z,98529.91
2023-05-25T12:18:26.791Z,98526.47
2023-05-25T12:20:28.238Z,98522.25
2023-05-25T12:22:29.686Z,98529.03
2023-05-25T12:24:31.049Z,98526.50
2023-05-25T12:26:32.403Z,98522.25
2023-05-25T12:28:33.797Z,98522.25
2023-05-25T12:30:35.168Z,98523.09
2023-05-25T12:32:36.696Z,98520.56
2023-05-25T12:34:38.057Z,98517.16
2023-05-25T12:36:39.794Z,98507.78
2023-05-25T12:38:41.266Z,98512.88
2023-05-25T12:40:42.860Z,98505.22
2023-05-25T12:42:44.414Z,98500.97
2023-05-25T12:44:49.115Z,98509.47
2023-05-25T12:46:51.438Z,98501.84
2023-05-25T12:48:52.826Z,98503.53
2023-05-25T12:50:54.221Z,98494.19
2023-05-25T12:52:55.736Z,98496.75
2023-05-25T12:55:03.176Z,98497.59
2023-05-25T12:57:06.599Z,98496.75
2023-05-25T12:59:07.947Z,98498.44
2023-05-25T13:01:09.343Z,98499.28
2023-05-25T13:03:13.576Z,98501.84
2023-05-25T13:05:14.993Z,98494.16
2023-05-25T13:07:19.305Z,98494.19
2023-05-25T13:09:21.392Z,98500.16
2023-05-25T13:11:22.728Z,98504.41
2023-05-25T13:13:24.099Z,98490.75
2023-05-25T13:15:26.239Z,98495.84
2023-05-25T13:17:27.648Z,98493.34
2023-05-25T13:19:28.993Z,98488.28
2023-05-25T13:21:30.311Z,98495.94
2023-05-25T13:23:31.641Z,98495.94
2023-05-25T13:25:33.038Z,98487.38
2023-05-25T13:27:34.452Z,98485.72
2023-05-25T13:29:35.780Z,98484.84
2023-05-25T13:31:37.119Z,98472.94
2023-05-25T13:33:38.470Z,98485.53
2023-05-25T13:35:58.484Z,98479.50
2023-05-25T13:38:00.135Z,98472.72
2023-05-25T13:40:02.428Z,98475.69
2023-05-25T13:42:03.756Z,98478.94
2023-05-25T13:44:05.100Z,98471.16
2023-05-25T13:46:18.456Z,98480.03
2023-05-25T13:48:27.737Z,98480.00
2023-05-25T13:50:29.397Z,98481.28
2023-05-25T13:52:30.721Z,98477.16
2023-05-25T13:54:32.117Z,98472.72
2023-05-25T13:56:33.538Z,98478.41
2023-05-25T13:58:34.905Z,98467.66
2023-05-25T14:00:36.410Z,98468.66
2023-05-25T14:02:37.946Z,98475.59
2023-05-25T14:04:39.442Z,98475.66
2023-05-25T14:06:40.799Z,98468.88
2023-05-25T14:08:42.134Z,98472.28
2023-05-25T14:10:44.306Z,98470.63
2023-05-25T14:12:45.842Z,98466.38
2023-05-25T14:14:47.179Z,98471.47
2023-05-25T14:16:48.610Z,98474.06
2023-05-25T14:18:49.977Z,98461.31
2023-05-25T14:20:54.665Z,98456.25
2023-05-25T14:22:56.087Z,98465.59
2023-05-25T14:24:57.418Z,98461.34
2023-05-25T14:26:58.758Z,98461.34
2023-05-25T14:29:00.437Z,98459.66
2023-05-25T14:31:01.814Z,98462.28
2023-05-25T14:33:03.388Z,98459.72
2023-05-25T14:35:04.830Z,98459.69
2023-05-25T14:37:06.172Z,98370.22
2023-05-25T14:39:07.525Z,98451.22
2023-05-25T14:41:08.879Z,98457.16
2023-05-25T14:43:10.336Z,98453.75
2023-05-25T14:45:12.840Z,98452.91
2023-05-25T14:47:15.590Z,98458.06
2023-05-25T14:49:17.395Z,98453.00
2023-05-25T14:51:18.781Z,98455.56
2023-05-25T14:53:20.679Z,98448.78
2023-05-25T14:55:22.052Z,98453.91
2023-05-25T14:57:23.396Z,98459.91
2023-05-25T14:59:24.815Z,98459.09
2023-05-25T15:01:26.327Z,98448.06
2023-05-25T15:03:27.896Z,98452.31
2023-05-25T15:05:32.095Z,98450.63
2023-05-25T15:07:33.480Z,98454.06
2023-05-25T15:09:36.535Z,98453.25
2023-05-25T15:11:37.892Z,98452.41
2023-05-25T15:13:40.768Z,98442.22
2023-05-25T15:15:42.330Z,98452.47
2023-05-25T15:17:43.746Z,98450.78
2023-05-25T15:19:45.102Z,98453.38
2023-05-25T15:21:46.519Z,98444.03
2023-05-25T15:23:47.891Z,98453.38
2023-05-25T15:25:49.246Z,98449.16
2023-05-25T15:27:50.644Z,98449.19
2023-05-25T15:29:52.004Z,98450.91
2023-05-25T15:31:53.744Z,98449.25
2023-05-25T15:33:58.752Z,98451.81
2023-05-25T15:36:00.441Z,98450.97
2023-05-25T15:38:01.891Z,98446.75
2023-05-25T15:40:03.370Z,98440.84
2023-05-25T15:42:04.750Z,98442.56
2023-05-25T15:44:08.307Z,98445.97
2023-05-25T15:46:09.753Z,98442.56
2023-05-25T15:48:11.212Z,98451.09
2023-05-25T15:50:12.665Z,98450.28
2023-05-25T15:52:14.086Z,98434.19
2023-05-25T15:54:15.452Z,98441.84
2023-05-25T15:56:16.963Z,98431.69
2023-05-25T15:58:18.447Z,98433.41
2023-05-25T16:00:19.879Z,98425.78
2023-05-25T16:02:21.278Z,98423.28
2023-05-25T16:04:23.688Z,98433.47
2023-05-25T16:06:25.207Z,98425.00
2023-05-25T16:08:26.532Z,98430.94
2023-05-25T16:10:27.867Z,98425.03
2023-05-25T16:12:29.761Z,98422.53
2023-05-25T16:14:31.176Z,98421.66
2023-05-25T16:16:32.716Z,98420.03
2023-05-25T16:18:34.347Z,98425.19
2023-05-25T16:20:36.103Z,98421.78
2023-05-25T16:22:37.519Z,98422.63
2023-05-25T16:24:38.941Z,98414.97
2023-05-25T16:26:40.346Z,98034.50
2023-05-25T16:28:41.725Z,98401.41
2023-05-25T16:30:43.040Z,98411.63
2023-05-25T16:32:44.471Z,98407.28
2023-05-25T16:34:46.197Z,98402.75
2023-05-25T16:36:47.528Z,98397.06
2023-05-25T16:38:48.917Z,98398.84
2023-05-25T16:40:50.367Z,98395.84
2023-05-25T16:42:51.703Z,98396.06
2023-05-25T16:44:53.163Z,98403.22
2023-05-25T16:46:54.529Z,98399.03
2023-05-25T16:48:55.982Z,98405.56
2023-05-25T16:50:57.319Z,98408.38
2023-05-25T16:52:58.664Z,98402.59
2023-05-25T16:55:00.023Z,98406.91
2023-05-25T16:57:02.288Z,98403.56
2023-05-25T16:59:03.709Z,98399.72
2023-05-25T17:01:05.134Z,98399.19
2023-05-25T17:03:07.195Z,98404.41
2023-05-25T17:05:08.668Z,98398.53
2023-05-25T17:07:10.094Z,98411.75
2023-05-25T17:09:12.038Z,98406.00
2023-05-25T17:11:13.370Z,98405.25
2023-05-25T17:13:14.698Z,98408.81
2023-05-25T17:15:16.318Z,98401.69
2023-05-25T17:17:17.660Z,98401.56
2023-05-25T17:19:18.997Z,98403.22
2023-05-25T17:21:20.379Z,98395.53
2023-05-25T17:23:22.384Z,98398.44
2023-05-25T17:25:23.723Z,98399.56
2023-05-25T17:27:25.313Z,98395.41
2023-05-25T17:29:26.743Z,98398.88
2023-05-25T17:31:28.148Z,98401.81
2023-05-25T17:33:29.574Z,98405.88
2023-05-25T17:35:33.724Z,98396.91
2023-05-25T17:37:35.044Z,98401.34
2023-05-25T17:39:36.669Z,98398.53
2023-05-25T17:41:38.007Z,98400.56
2023-05-25T17:43:39.389Z,98395.31
2023-05-25T17:45:40.873Z,98398.69
2023-05-25T17:47:42.274Z,98399.44
2023-05-25T17:49:43.665Z,98394.34
2023-05-25T17:51:45.032Z,98401.16
2023-05-25T17:53:46.780Z,98394.38
2023-05-25T17:55:48.211Z,98210.72
2023-05-25T17:57:49.535Z,98403.69
2023-05-25T17:59:50.918Z,98395.97
2023-05-25T18:01:52.387Z,98412.22
2023-05-25T18:03:54.355Z,98407.97
2023-05-25T18:05:55.971Z,98408.00
2023-05-25T18:07:57.324Z,98411.31
2023-05-25T18:09:58.714Z,98405.34
2023-05-25T18:12:00.169Z,98412.56
2023-05-25T18:14:02.258Z,98415.19
2023-05-25T18:16:03.587Z,98420.00
2023-05-25T18:18:06.712Z,98411.41
2023-05-25T18:20:14.241Z,98414.75
2023-05-25T18:22:15.792Z,98407.91
2023-05-25T18:24:17.312Z,98413.81
2023-05-25T18:26:18.717Z,98413.81
2023-05-25T18:28:20.040Z,98412.97
2023-05-25T18:30:21.358Z,98417.13
2023-05-25T18:32:22.959Z,98420.59
2023-05-25T18:34:24.425Z,98416.47
2023-05-25T18:36:26.105Z,98418.75
2023-05-25T18:38:27.439Z,98422.47
2023-05-25T18:40:28.770Z,98430.28
2023-05-25T18:42:30.130Z,98426.97
2023-05-25T18:44:31.529Z,98427.00
2023-05-25T18:46:32.996Z,98423.66
2023-05-25T18:48:34.894Z,98421.97
2023-05-25T18:50:37.543Z,98427.97
2023-05-25T18:52:38.938Z,98420.34
2023-05-25T18:54:40.501Z,98432.25
2023-05-25T18:56:41.907Z,98433.97
2023-05-25T18:58:43.350Z,98437.41
2023-05-25T19:00:44.716Z,98437.34
2023-05-25T19:02:46.179Z,98438.59
2023-05-25T19:04:47.579Z,98468.81
2023-05-25T19:06:48.913Z,98442.25
2023-05-25T19:08:59.231Z,98435.41
2023-05-25T19:11:00.603Z,98437.13
2023-05-25T19:13:02.288Z,98437.09
2023-05-25T19:15:09.477Z,98441.28
2023-05-25T19:17:10.865Z,98440.91
2023-05-25T19:19:12.272Z,98443.66
2023-05-25T19:21:13.772Z,98437.75
2023-05-25T19:23:15.155Z,98446.31
2023-05-25T19:25:16.515Z,98447.13
2023-05-25T19:27:19.990Z,98447.09
2023-05-25T19:29:23.319Z,98456.44
2023-05-25T19:31:24.722Z,98458.19
2023-05-25T19:33:26.135Z,98464.16
2023-05-25T19:35:27.550Z,98456.53
2023-05-25T19:37:28.869Z,98458.09
2023-05-25T19:39:31.649Z,98465.38
2023-05-25T19:41:33.315Z,98461.63
2023-05-25T19:43:34.709Z,98459.78
2023-05-25T19:45:39.046Z,98459.69
2023-05-25T19:47:40.617Z,98463.00
2023-05-25T19:49:43.008Z,98456.13
2023-05-25T19:51:44.348Z,98468.91
2023-05-25T19:53:47.950Z,98478.88
2023-05-25T19:55:49.290Z,98474.09
2023-05-25T19:57:50.652Z,98476.19
2023-05-25T19:59:52.004Z,98482.63
2023-05-25T20:01:53.405Z,98479.13
2023-05-25T20:03:54.839Z,98486.78
2023-05-25T20:05:57.806Z,98480.84
2023-05-25T20:07:59.178Z,98482.09
2023-05-25T20:10:00.563Z,98480.63
2023-05-25T20:12:02.589Z,98473.75
2023-05-25T20:14:03.970Z,98483.97
2023-05-25T20:16:05.575Z,98491.63
2023-05-25T20:18:09.952Z,98483.13
2023-05-25T20:20:11.387Z,98486.47
2023-05-25T20:22:12.810Z,98495.00
2023-05-25T20:24:14.224Z,98497.59
2023-05-25T20:26:15.599Z,98500.16
2023-05-25T20:28:17.072Z,98504.38
2023-05-25T20:30:18.462Z,98501.88
2023-05-25T20:32:19.798Z,98502.72
2023-05-25T20:34:24.212Z,98506.88
2023-05-25T20:36:25.570Z,98502.75
2023-05-25T20:38:26.885Z,98506.13
2023-05-25T20:40:28.219Z,98507.84
2023-05-25T20:42:29.557Z,98505.28
2023-05-25T20:44:32.113Z,98513.75
2023-05-25T20:46:33.917Z,98510.34
2023-05-25T20:48:35.515Z,98508.59
2023-05-25T20:50:36.845Z,98506.34
2023-05-25T20:52:40.833Z,98513.63
2023-05-25T20:54:44.720Z,98518.00
2023-05-25T20:56:47.902Z,98514.25
2023-05-25T20:58:49.312Z,98505.53
2023-05-25T21:00:51.201Z,98511.31
2023-05-25T21:02:52.606Z,98506.13
2023-05-25T21:04:54.028Z,98509.50
2023-05-25T21:06:55.514Z,98507.69
2023-05-25T21:08:56.859Z,98509.50
2023-05-25T21:10:58.242Z,98520.56
2023-05-25T21:12:59.571Z,98518.75
2023-05-25T21:15:01.125Z,98517.06
2023-05-25T21:17:02.485Z,98526.34
2023-05-25T21:19:03.822Z,98525.50
2023-05-25T21:21:05.677Z,98523.78
2023-05-25T21:23:07.050Z,98530.56
2023-05-25T21:25:08.420Z,98535.63
2023-05-25T21:27:09.790Z,98533.13
2023-05-25T21:29:11.169Z,98542.38
2023-05-25T21:31:12.583Z,98536.38
2023-05-25T21:33:13.987Z,98535.59
2023-05-25T21:35:17.978Z,98534.81
2023-05-25T21:37:19.332Z,98534.66
2023-05-25T21:39:20.655Z,98533.94
2023-05-25T21:41:23.476Z,98536.56
2023-05-25T21:43:24.830Z,98534.91
2023-05-25T21:45:26.202Z,98543.22
2023-05-25T21:47:27.582Z,98543.34
2023-05-25T21:49:29.018Z,98546.84
2023-05-25T21:51:30.393Z,98549.19
2023-05-25T21:53:31.789Z,98545.16
2023-05-25T21:55:33.186Z,98542.69
2023-05-25T21:57:34.540Z,98549.56
2023-05-25T21:59:35.897Z,98552.44
2023-05-25T22:01:37.326Z,98551.00
2023-05-25T22:03:38.871Z,98554.56
2023-05-25T22:05:40.248Z,98551.56
2023-05-25T22:07:41.918Z,98548.75
2023-05-25T22:09:43.321Z,98552.06
2023-05-25T22:11:44.660Z,98552.88
2023-05-25T22:13:45.996Z,98556.28
2023-05-25T22:15:47.452Z,98555.44
2023-05-25T22:17:48.969Z,98552.06
2023-05-25T22:20:05.972Z,98552.06
2023-05-25T22:22:09.046Z,98546.19
2023-05-25T22:24:10.387Z,98552.13
2023-05-25T22:26:11.764Z,98555.53
2023-05-25T22:28:14.178Z,98555.56
2023-05-25T22:30:15.578Z,98553.88
2023-05-25T22:32:16.949Z,98558.16
2023-05-25T22:34:18.276Z,98564.13
2023-05-25T22:36:19.596Z,98560.72
2023-05-25T22:38:20.934Z,98560.72
2023-05-25T22:40:22.433Z,98565.03
2023-05-25T22:42:23.970Z,98565.91
2023-05-25T22:44:25.291Z,98566.75
2023-05-25T22:46:26.884Z,98563.31
2023-05-25T22:48:28.238Z,98559.06
2023-05-25T22:50:29.626Z,98568.44
2023-05-25T22:52:30.992Z,98558.28
2023-05-25T22:54:32.314Z,98567.59
2023-05-25T22:56:36.432Z,98564.13
2023-05-25T22:58:38.103Z,98555.63
2023-05-25T23:00:39.427Z,98572.63
2023-05-25T23:02:40.853Z,98566.69
2023-05-25T23:04:43.017Z,98568.38
2023-05-25T23:06:44.335Z,98570.13
2023-05-25T23:08:46.528Z,98571.03
2023-05-25T23:10:47.895Z,98563.38
2023-05-25T23:12:50.362Z,98567.63
2023-05-25T23:14:51.952Z,98572.75
2023-05-25T23:16:53.427Z,98568.50
2023-05-25T23:18:54.820Z,98572.66
2023-05-25T23:20:56.183Z,98572.63
2023-05-25T23:22:57.518Z,98573.50
2023-05-25T23:24:58.893Z,98570.16
2023-05-25T23:27:00.876Z,98565.03
2023-05-25T23:29:02.346Z,98569.28
2023-05-25T23:31:03.712Z,98565.91
2023-05-25T23:33:05.117Z,98564.22
2023-05-25T23:35:06.490Z,98565.09
2023-05-25T23:37:07.831Z,98557.44
2023-05-25T23:39:09.498Z,98563.41
2023-05-25T23:41:10.834Z,98565.94
2023-05-25T23:43:12.858Z,98560.00
2023-05-25T23:45:14.333Z,98559.16
2023-05-25T23:47:15.754Z,98560.00
2023-05-25T23:49:17.127Z,98564.25
2023-05-25T23:51:18.503Z,98565.94
2023-05-25T23:53:19.848Z,98567.63